Time;durP1;ratioP1;P1;durP2;ratioP2;P2;SDS_P1;SDS_P2;PMS_P1;PMS_P2;Temp;Humidity;BMP_temperature;BMP_pressure;BME280_temperature;BME280_humidity;BME280_pressure;Samples;Min_cycle;Max_cycle;Signal;HPM_P1;HPM_P2
2022/07/29 00:00:44;;;;;;;1.33;1.00;;;16.90;73.90;;;;;;5093373;28;20027;-66
2022/07/29 00:03:11;;;;;;;3.10;1.45;;;16.90;74.10;;;;;;5092274;28;20024;-64
2022/07/29 00:05:39;;;;;;;2.60;1.40;;;16.90;74.20;;;;;;5093498;28;20115;-58
2022/07/29 00:08:05;;;;;;;2.70;1.33;;;16.80;74.50;;;;;;5092619;28;20024;-56
2022/07/29 00:10:30;;;;;;;2.17;1.20;;;16.80;74.60;;;;;;5092266;28;20016;-56
2022/07/29 00:12:56;;;;;;;1.40;1.23;;;16.80;74.70;;;;;;5074394;28;20073;-55
2022/07/29 00:15:22;;;;;;;2.97;1.40;;;16.80;75.10;;;;;;5074719;28;20078;-55
2022/07/29 00:17:47;;;;;;;1.48;1.00;;;16.70;75.30;;;;;;5091857;28;20046;-55
2022/07/29 00:20:13;;;;;;;1.90;1.23;;;16.70;75.40;;;;;;5092519;28;20024;-57
2022/07/29 00:22:39;;;;;;;1.35;1.02;;;16.70;75.40;;;;;;5092803;28;20020;-57
2022/07/29 00:25:06;;;;;;;3.35;1.50;;;16.60;75.80;;;;;;5092069;28;20039;-70
2022/07/29 00:27:32;;;;;;;2.55;1.48;;;16.60;76.20;;;;;;5092720;28;20046;-70
2022/07/29 00:29:57;;;;;;;2.58;1.13;;;16.60;76.60;;;;;;5092673;28;20468;-74
2022/07/29 00:32:23;;;;;;;1.13;1.02;;;16.50;76.60;;;;;;5092304;28;20032;-73
2022/07/29 00:37:33;;;;;;;1.98;1.52;;;16.50;77.00;;;;;;5092805;28;20897;-70
2022/07/29 00:39:58;;;;;;;1.98;1.25;;;16.40;77.00;;;;;;5092829;28;20115;-74
2022/07/29 00:42:24;;;;;;;2.45;1.40;;;16.40;77.30;;;;;;5093006;28;20012;-72
2022/07/29 00:44:49;;;;;;;3.17;1.70;;;16.40;77.90;;;;;;5092150;28;20380;-75
2022/07/29 00:47:15;;;;;;;3.40;1.40;;;16.40;77.80;;;;;;5092982;28;20016;-74
2022/07/29 00:49:42;;;;;;;2.90;1.17;;;16.30;77.90;;;;;;5093071;28;20031;-61
2022/07/29 00:52:08;;;;;;;2.03;1.13;;;16.30;78.00;;;;;;5091618;28;20129;-66
2022/07/29 00:54:35;;;;;;;2.20;1.20;;;16.30;78.20;;;;;;5092642;28;20024;-60
2022/07/29 00:57:01;;;;;;;2.13;1.17;;;16.30;78.40;;;;;;5092437;28;20028;-72
2022/07/29 00:59:28;;;;;;;3.78;1.20;;;16.30;78.50;;;;;;5092042;28;20016;-66
2022/07/29 01:01:54;;;;;;;2.38;1.45;;;16.30;78.60;;;;;;5092126;28;20534;-65
2022/07/29 01:04:21;;;;;;;2.72;1.70;;;16.30;78.70;;;;;;5074289;28;20081;-67
2022/07/29 01:06:48;;;;;;;2.45;1.70;;;16.20;78.80;;;;;;5091581;28;20507;-61
2022/07/29 01:09:15;;;;;;;3.85;2.15;;;16.20;79.00;;;;;;5092462;28;20098;-64
2022/07/29 01:11:42;;;;;;;4.13;1.90;;;16.20;79.20;;;;;;5092092;28;20020;-69
2022/07/29 01:14:09;;;;;;;2.75;1.85;;;16.20;79.30;;;;;;5091138;28;20039;-56
2022/07/29 01:17:19;;;;;;;4.50;2.60;;;16.20;79.40;;;;;;5092144;28;20062;-65
2022/07/29 01:20:15;;;;;;;4.55;2.20;;;16.10;79.40;;;;;;5088212;28;20040;-58
2022/07/29 01:23:13;;;;;;;5.35;2.15;;;16.10;79.50;;;;;;5091772;28;20038;-59
2022/07/29 01:25:54;;;;;;;3.88;2.03;;;16.10;80.00;;;;;;5092192;28;20020;-61
2022/07/29 01:28:19;;;;;;;4.25;2.13;;;16.00;79.90;;;;;;5091212;28;20059;-68
2022/07/29 01:30:47;;;;;;;3.38;1.58;;;16.00;80.30;;;;;;5091944;28;20052;-65
2022/07/29 01:33:48;;;;;;;1.95;1.40;;;16.00;80.20;;;;;;5091475;28;20052;-70
2022/07/29 01:36:10;;;;;;;3.40;1.73;;;16.00;80.40;;;;;;5091138;28;20132;-62
2022/07/29 01:38:39;;;;;;;1.88;1.42;;;16.00;80.70;;;;;;5091841;28;20046;-67
2022/07/29 01:41:15;;;;;;;2.95;1.40;;;16.00;80.30;;;;;;5090926;28;20051;-60
2022/07/29 01:44:02;;;;;;;2.97;1.60;;;16.00;80.30;;;;;;5071665;28;20035;-60
2022/07/29 01:46:33;;;;;;;1.83;1.25;;;16.00;80.10;;;;;;5071739;28;20032;-67
2022/07/29 01:49:19;;;;;;;;;;;16.10;80.20;;;;;;5070829;28;20100;-61
2022/07/29 01:51:52;;;;;;;4.53;1.52;;;16.00;80.40;;;;;;5070695;28;20359;-59
2022/07/29 01:54:46;;;;;;;3.45;1.27;;;16.00;80.40;;;;;;5071267;28;20040;-59
2022/07/29 01:57:14;;;;;;;3.50;1.80;;;16.00;80.60;;;;;;5071122;28;20021;-61
2022/07/29 01:59:43;;;;;;;4.85;1.58;;;16.00;80.70;;;;;;5071240;28;20040;-60
2022/07/29 02:02:10;;;;;;;2.65;1.50;;;16.00;80.90;;;;;;5070182;28;20017;-67
2022/07/29 02:04:37;;;;;;;2.67;1.70;;;16.00;81.00;;;;;;5071178;28;20024;-65
2022/07/29 02:07:06;;;;;;;2.72;1.40;;;16.00;81.00;;;;;;5070539;28;20021;-59
2022/07/29 02:09:35;;;;;;;4.45;1.85;;;15.90;80.90;;;;;;5070179;28;20459;-53
2022/07/29 02:12:03;;;;;;;6.13;1.60;;;15.90;81.10;;;;;;5070475;28;20024;-55
2022/07/29 02:14:40;;;;;;;2.42;1.65;;;15.90;81.20;;;;;;5070706;28;20452;-53
2022/07/29 02:17:07;;;;;;;4.10;1.60;;;15.90;81.30;;;;;;5069882;28;20491;-56
2022/07/29 02:19:33;;;;;;;2.35;1.45;;;15.90;81.30;;;;;;5070630;28;20024;-53
2022/07/29 02:22:01;;;;;;;2.70;1.55;;;15.90;81.90;;;;;;5070536;28;20103;-52
2022/07/29 02:24:27;;;;;;;3.15;1.92;;;15.90;81.20;;;;;;5070019;28;20024;-54
2022/07/29 02:26:56;;;;;;;3.92;2.10;;;15.90;81.20;;;;;;5070455;28;20020;-51
2022/07/29 02:29:25;;;;;;;4.28;1.75;;;15.90;81.30;;;;;;5070680;28;20036;-53
2022/07/29 02:31:52;;;;;;;2.00;1.50;;;15.90;81.20;;;;;;5069430;28;20029;-55
2022/07/29 02:34:19;;;;;;;3.60;1.80;;;15.90;80.90;;;;;;5070415;28;20373;-55
2022/07/29 02:36:46;;;;;;;5.28;1.90;;;16.00;80.90;;;;;;5070420;28;20457;-57
2022/07/29 02:39:14;;;;;;;6.28;2.38;;;16.00;80.80;;;;;;5052546;28;20036;-51
2022/07/29 02:41:51;;;;;;;5.80;2.00;;;16.00;80.80;;;;;;5070847;28;20021;-68
2022/07/29 02:44:19;;;;;;;4.00;1.95;;;16.00;80.60;;;;;;5070231;28;20052;-73
2022/07/29 02:47:01;;;;;;;3.90;1.88;;;16.00;80.70;;;;;;5070736;28;20452;-68
2022/07/29 02:49:49;;;;;;;3.47;1.70;;;16.00;80.70;;;;;;5070955;28;20021;-73
2022/07/29 02:52:30;;;;;;;5.15;2.20;;;15.90;80.70;;;;;;5069969;28;20481;-74
2022/07/29 02:55:07;;;;;;;3.05;2.10;;;16.00;83.30;;;;;;5071642;28;20042;-74
2022/07/29 02:57:37;;;;;;;4.53;2.30;;;15.80;86.20;;;;;;5074900;28;20028;-72
2022/07/29 03:00:08;;;;;;;2.70;2.00;;;15.60;87.00;;;;;;5073870;28;20059;-73
2022/07/29 03:02:37;;;;;;;3.20;2.28;;;15.50;87.70;;;;;;5074798;28;20028;-74
2022/07/29 03:05:05;;;;;;;5.95;2.08;;;15.40;88.00;;;;;;5073931;28;20082;-75
2022/07/29 03:07:33;;;;;;;3.33;2.30;;;15.40;89.20;;;;;;5074607;28;20103;-73
2022/07/29 03:09:59;;;;;;;2.85;1.75;;;15.40;89.60;;;;;;5074113;28;20021;-71
2022/07/29 03:12:26;;;;;;;3.72;2.17;;;15.30;89.70;;;;;;5074073;28;20063;-74
2022/07/29 03:14:52;;;;;;;3.40;2.20;;;15.20;89.70;;;;;;5074216;28;20024;-73
2022/07/29 03:17:18;;;;;;;3.53;2.25;;;15.20;90.10;;;;;;5073983;28;20441;-59
2022/07/29 03:19:44;;;;;;;3.65;1.90;;;15.10;89.60;;;;;;5073512;28;20025;-67
2022/07/29 03:22:10;;;;;;;3.80;2.30;;;15.20;89.60;;;;;;5073715;28;20029;-69
2022/07/29 03:24:37;;;;;;;2.20;1.60;;;15.20;89.70;;;;;;5073996;28;20036;-64
2022/07/29 03:27:04;;;;;;;3.40;1.80;;;15.20;90.10;;;;;;5073181;28;20063;-72
2022/07/29 03:29:29;;;;;;;3.60;1.92;;;15.20;90.20;;;;;;5073858;28;20469;-59
2022/07/29 03:31:55;;;;;;;4.40;2.28;;;15.20;90.20;;;;;;5073548;28;20030;-65
2022/07/29 03:34:21;;;;;;;3.35;2.17;;;15.20;90.70;;;;;;5073170;28;20451;-63
2022/07/29 03:36:47;;;;;;;3.92;2.10;;;15.10;91.30;;;;;;5073623;28;20048;-62
2022/07/29 03:39:18;;;;;;;3.90;2.30;;;14.90;92.10;;;;;;5073748;28;20032;-69
2022/07/29 03:41:46;;;;;;;3.75;2.20;;;14.80;92.80;;;;;;5073048;28;20083;-60
2022/07/29 03:44:13;;;;;;;3.78;2.33;;;14.70;93.10;;;;;;5077493;28;20016;-60
2022/07/29 03:46:41;;;;;;;3.08;2.20;;;14.60;92.80;;;;;;5093778;28;20458;-69
2022/07/29 03:49:08;;;;;;;7.40;2.70;;;14.50;93.00;;;;;;5092729;28;20028;-64
2022/07/29 03:51:34;;;;;;;3.42;2.40;;;14.50;93.20;;;;;;5093711;28;20020;-62
2022/07/29 03:54:04;;;;;;;5.00;2.47;;;14.50;93.10;;;;;;5093360;28;20649;-66
2022/07/29 03:56:32;;;;;;;4.32;2.88;;;14.60;93.30;;;;;;5093200;28;20103;-61
2022/07/29 03:58:58;;;;;;;4.13;2.63;;;14.60;93.30;;;;;;5093149;28;20020;-68
2022/07/29 04:01:26;;;;;;;4.13;2.50;;;14.60;93.20;;;;;;5083092;28;20047;-57
2022/07/29 04:03:52;;;;;;;3.58;2.53;;;14.60;93.40;;;;;;5083790;28;20059;-58
2022/07/29 04:06:17;;;;;;;4.47;2.80;;;14.50;93.80;;;;;;5066659;28;20422;-56
2022/07/29 04:08:43;;;;;;;3.78;2.53;;;14.40;93.90;;;;;;5081416;28;20020;-52
2022/07/29 04:11:08;;;;;;;3.60;2.55;;;14.40;94.10;;;;;;5086414;28;20028;-56
2022/07/29 04:13:34;;;;;;;6.35;2.60;;;14.30;94.10;;;;;;5072903;28;20397;-55
2022/07/29 04:16:00;;;;;;;4.78;2.25;;;14.30;94.00;;;;;;5085049;28;20645;-56
2022/07/29 04:18:25;;;;;;;4.60;2.55;;;14.20;94.00;;;;;;5093121;28;20027;-56
2022/07/29 04:20:51;;;;;;;5.40;2.97;;;14.20;94.10;;;;;;5086772;28;20024;-54
2022/07/29 04:23:16;;;;;;;4.63;2.30;;;14.20;94.00;;;;;;5074125;28;20115;-55
2022/07/29 04:25:43;;;;;;;3.53;2.20;;;14.30;94.00;;;;;;5084383;28;20377;-53
2022/07/29 04:28:09;;;;;;;4.35;2.40;;;14.30;93.90;;;;;;5054348;28;20105;-55
2022/07/29 04:30:36;;;;;;;5.88;2.53;;;14.40;93.90;;;;;;5071914;28;20469;-55
2022/07/29 04:33:04;;;;;;;4.63;2.50;;;14.50;93.70;;;;;;5053946;28;20436;-55
2022/07/29 04:35:33;;;;;;;6.55;2.55;;;14.50;93.60;;;;;;5072308;28;20163;-52
2022/07/29 04:37:59;;;;;;;4.57;2.70;;;14.60;93.60;;;;;;5077009;28;20031;-59
2022/07/29 04:40:25;;;;;;;3.53;2.30;;;14.60;93.30;;;;;;5077910;28;20065;-56
2022/07/29 04:42:51;;;;;;;3.95;2.33;;;14.60;93.30;;;;;;5076916;28;20035;-54
2022/07/29 04:45:16;;;;;;;3.88;2.60;;;14.60;93.30;;;;;;5091723;28;20522;-54
2022/07/29 04:47:42;;;;;;;7.22;2.75;;;14.70;93.30;;;;;;5092639;28;20078;-68
2022/07/29 04:50:08;;;;;;;6.40;2.40;;;14.60;93.20;;;;;;5092054;28;20020;-52
2022/07/29 04:52:35;;;;;;;4.78;2.60;;;14.60;93.20;;;;;;5088125;28;20093;-60
2022/07/29 04:55:00;;;;;;;6.18;2.78;;;14.70;93.20;;;;;;5087841;28;20030;-54
2022/07/29 04:57:26;;;;;;;3.60;2.50;;;14.70;93.20;;;;;;5084794;28;20519;-61
2022/07/29 04:59:52;;;;;;;3.00;2.25;;;14.60;93.10;;;;;;5087618;28;20024;-55
2022/07/29 05:02:18;;;;;;;4.80;2.38;;;14.70;93.10;;;;;;5088876;28;20024;-53
2022/07/29 05:04:44;;;;;;;6.55;2.40;;;14.70;92.90;;;;;;5090871;28;20362;-61
2022/07/29 05:07:09;;;;;;;3.85;2.55;;;14.70;92.80;;;;;;5080204;28;20024;-61
2022/07/29 05:09:35;;;;;;;6.18;2.60;;;14.70;92.80;;;;;;5089282;28;20384;-67
2022/07/29 05:12:01;;;;;;;4.07;2.65;;;14.70;92.60;;;;;;5088478;28;20089;-58
2022/07/29 05:14:27;;;;;;;4.07;2.20;;;14.70;92.70;;;;;;5090413;28;20462;-72
2022/07/29 05:16:56;;;;;;;5.35;2.38;;;14.80;92.70;;;;;;5094667;28;20539;-73
2022/07/29 05:19:22;;;;;;;4.95;2.13;;;14.80;92.70;;;;;;5078899;28;20143;-73
2022/07/29 05:21:47;;;;;;;3.63;2.08;;;14.80;92.60;;;;;;5077447;28;20020;-73
2022/07/29 05:24:13;;;;;;;7.00;2.38;;;14.90;92.50;;;;;;5082819;28;20468;-69
2022/07/29 05:26:39;;;;;;;3.05;1.95;;;14.90;92.30;;;;;;5087834;28;20055;-51
2022/07/29 05:29:05;;;;;;;5.63;2.58;;;15.00;92.20;;;;;;5073577;28;20470;-58
2022/07/29 05:31:30;;;;;;;3.88;2.13;;;15.00;91.90;;;;;;5077009;28;20069;-68
2022/07/29 05:33:56;;;;;;;3.05;1.98;;;14.90;91.70;;;;;;5090106;28;20052;-73
2022/07/29 05:36:21;;;;;;;3.42;2.25;;;15.00;91.70;;;;;;5090117;28;20027;-73
2022/07/29 05:38:47;;;;;;;3.53;2.30;;;15.00;91.60;;;;;;5090843;28;20058;-71
2022/07/29 05:41:13;;;;;;;5.00;2.20;;;15.10;91.80;;;;;;5090367;28;20504;-70
2022/07/29 05:43:38;;;;;;;3.17;2.13;;;15.20;91.80;;;;;;5090066;28;20028;-70
2022/07/29 05:46:04;;;;;;;6.03;2.40;;;15.30;91.80;;;;;;5090914;28;20479;-69
2022/07/29 05:48:29;;;;;;;3.85;2.00;;;15.40;91.80;;;;;;5089341;28;20035;-62
2022/07/29 05:50:55;;;;;;;5.82;2.22;;;15.50;91.80;;;;;;5090622;28;20454;-62
2022/07/29 05:53:21;;;;;;;4.35;1.75;;;15.50;91.70;;;;;;5090630;28;20043;-61
2022/07/29 05:55:47;;;;;;;5.50;2.08;;;15.60;91.40;;;;;;5087514;28;20138;-66
2022/07/29 05:58:13;;;;;;;4.07;2.30;;;15.70;91.10;;;;;;5089300;28;20023;-69
2022/07/29 06:00:39;;;;;;;5.50;2.25;;;15.80;90.80;;;;;;5091436;28;20349;-62
2022/07/29 06:03:05;;;;;;;5.15;2.38;;;15.80;90.80;;;;;;5089829;28;20164;-62
2022/07/29 06:05:30;;;;;;;3.85;2.47;;;15.80;90.60;;;;;;5091302;28;20472;-56
2022/07/29 06:07:56;;;;;;;5.43;2.40;;;15.90;90.50;;;;;;5090615;28;20480;-56
2022/07/29 06:10:22;;;;;;;5.85;2.33;;;15.90;90.50;;;;;;5089206;28;20080;-55
2022/07/29 06:12:47;;;;;;;8.02;2.72;;;15.90;90.60;;;;;;5090009;28;20043;-54
2022/07/29 06:15:13;;;;;;;3.30;2.20;;;15.80;90.50;;;;;;5087710;28;20024;-57
2022/07/29 06:17:38;;;;;;;4.32;2.83;;;15.80;90.60;;;;;;5085337;28;20027;-55
2022/07/29 06:20:04;;;;;;;4.10;2.58;;;15.80;90.60;;;;;;5074729;28;20459;-58
2022/07/29 06:22:30;;;;;;;4.22;2.72;;;15.80;90.50;;;;;;5089004;28;20104;-54
2022/07/29 06:24:56;;;;;;;3.80;2.30;;;15.80;90.50;;;;;;5086584;28;20384;-55
2022/07/29 06:27:21;;;;;;;4.03;2.00;;;15.80;90.60;;;;;;5088700;28;20016;-56
2022/07/29 06:29:47;;;;;;;3.20;2.30;;;15.80;90.70;;;;;;5085586;28;20024;-58
2022/07/29 06:32:12;;;;;;;5.30;2.60;;;15.80;90.70;;;;;;5089145;28;20028;-59
2022/07/29 06:34:38;;;;;;;4.95;2.25;;;15.90;90.80;;;;;;5089615;28;20097;-59
2022/07/29 06:37:07;;;;;;;4.43;2.20;;;15.90;90.70;;;;;;5068224;28;20370;-59
2022/07/29 06:39:37;;;;;;;3.65;2.22;;;16.00;90.60;;;;;;5069337;28;20021;-54
2022/07/29 06:42:06;;;;;;;10.20;2.85;;;16.00;90.60;;;;;;5089213;28;20019;-63
2022/07/29 06:44:33;;;;;;;7.07;2.53;;;16.10;90.50;;;;;;5069536;28;20037;-59
2022/07/29 06:46:59;;;;;;;3.03;2.10;;;16.10;90.40;;;;;;5069626;28;20055;-61
2022/07/29 06:49:26;;;;;;;4.65;2.50;;;16.20;90.20;;;;;;5086427;28;20024;-59
2022/07/29 06:51:52;;;;;;;5.88;2.53;;;16.30;90.10;;;;;;5081644;28;20048;-59
2022/07/29 06:54:18;;;;;;;5.28;2.45;;;16.30;90.10;;;;;;5078445;28;20032;-59
2022/07/29 06:56:43;;;;;;;3.90;2.50;;;16.30;89.90;;;;;;5071637;28;20032;-59
2022/07/29 06:59:10;;;;;;;3.80;2.55;;;16.30;89.60;;;;;;5088832;28;20020;-58
2022/07/29 07:01:38;;;;;;;3.70;2.20;;;16.30;89.50;;;;;;5089330;28;20055;-61
2022/07/29 07:04:04;;;;;;;5.22;2.90;;;16.40;89.30;;;;;;5070928;28;20032;-61
2022/07/29 07:06:29;;;;;;;8.27;2.58;;;16.40;89.00;;;;;;5059316;28;20012;-61
2022/07/29 07:08:55;;;;;;;6.55;3.00;;;16.50;89.00;;;;;;5088469;28;20086;-65
2022/07/29 07:11:20;;;;;;;4.72;2.45;;;16.50;88.60;;;;;;5088523;28;20024;-61
2022/07/29 07:13:46;;;;;;;3.80;2.33;;;16.60;88.50;;;;;;5077666;28;20476;-64
2022/07/29 07:16:11;;;;;;;6.95;2.83;;;16.60;88.40;;;;;;5084173;28;20026;-64
2022/07/29 07:18:37;;;;;;;3.80;2.60;;;16.60;88.20;;;;;;5070934;28;20074;-68
2022/07/29 07:21:04;;;;;;;5.40;2.55;;;16.60;88.40;;;;;;5053648;28;20012;-83
2022/07/29 07:23:31;;;;;;;3.40;2.45;;;16.70;88.10;;;;;;5081915;28;20532;-76
2022/07/29 07:25:56;;;;;;;3.92;2.50;;;16.70;87.50;;;;;;5086539;28;20020;-75
2022/07/29 07:28:22;;;;;;;6.30;2.90;;;16.70;86.80;;;;;;5088905;28;20141;-75
2022/07/29 07:30:48;;;;;;;3.97;2.60;;;16.70;86.60;;;;;;5087500;28;20091;-73
2022/07/29 07:33:14;;;;;;;6.88;3.17;;;16.70;86.70;;;;;;5089383;28;20056;-76
2022/07/29 07:35:40;;;;;;;3.92;2.55;;;16.80;86.10;;;;;;5090013;28;20078;-74
2022/07/29 07:38:06;;;;;;;3.50;2.45;;;16.80;85.90;;;;;;5088403;28;20028;-79
2022/07/29 07:40:32;;;;;;;4.53;2.90;;;16.90;85.30;;;;;;5090030;28;20055;-76
2022/07/29 07:42:57;;;;;;;6.63;2.38;;;16.90;85.10;;;;;;5092851;28;20032;-77
2022/07/29 07:45:23;;;;;;;6.15;2.67;;;17.00;84.80;;;;;;5074957;28;20050;-73
2022/07/29 07:47:49;;;;;;;5.20;2.55;;;17.00;84.80;;;;;;5082823;28;20027;-77
2022/07/29 07:50:14;;;;;;;6.22;2.47;;;17.00;84.80;;;;;;5078840;28;20500;-76
2022/07/29 07:52:52;;;;;;;4.93;2.75;;;17.10;84.70;;;;;;5085500;28;20361;-74
2022/07/29 07:55:19;;;;;;;4.88;2.60;;;17.20;84.10;;;;;;5091904;28;20173;-81
2022/07/29 07:57:45;;;;;;;4.20;2.50;;;17.20;83.80;;;;;;5080954;28;20384;-67
2022/07/29 08:00:15;;;;;;;4.60;2.97;;;17.30;83.60;;;;;;5090265;28;20028;-79
2022/07/29 08:02:42;;;;;;;4.22;2.40;;;17.30;83.00;;;;;;5092250;28;20160;-80
2022/07/29 08:05:08;;;;;;;6.47;2.60;;;17.20;83.10;;;;;;5092288;28;20012;-79
2022/07/29 08:07:34;;;;;;;9.00;2.50;;;17.30;83.60;;;;;;5091772;28;20442;-81
2022/07/29 08:09:59;;;;;;;6.15;2.75;;;17.30;83.70;;;;;;5092123;28;20485;-64
2022/07/29 08:12:26;;;;;;;5.07;3.55;;;17.40;83.30;;;;;;5090524;28;20459;-67
2022/07/29 08:14:52;;;;;;;4.57;2.45;;;17.50;82.90;;;;;;5090448;28;20062;-69
2022/07/29 08:17:17;;;;;;;5.70;2.60;;;17.40;82.80;;;;;;5086404;28;20047;-74
2022/07/29 08:19:43;;;;;;;5.15;2.60;;;17.50;82.70;;;;;;5054980;28;20032;-73
2022/07/29 08:22:09;;;;;;;5.72;2.78;;;17.50;82.80;;;;;;5084541;28;20153;-67
2022/07/29 08:24:45;;;;;;;4.95;2.30;;;17.60;82.70;;;;;;5093119;28;20035;-69
2022/07/29 08:27:11;;;;;;;5.40;2.40;;;17.70;82.20;;;;;;5084399;28;20065;-62
2022/07/29 08:29:37;;;;;;;4.72;2.47;;;17.80;81.80;;;;;;5071271;28;20028;-62
2022/07/29 08:32:03;;;;;;;3.53;2.45;;;17.90;81.30;;;;;;5079923;28;20024;-63
2022/07/29 08:34:29;;;;;;;3.83;2.25;;;17.90;81.00;;;;;;5092162;28;20139;-60
2022/07/29 08:36:55;;;;;;;5.65;2.10;;;18.00;80.10;;;;;;5088924;28;20024;-62
2022/07/29 08:39:22;;;;;;;4.88;2.28;;;18.10;79.90;;;;;;5090978;28;20031;-60
2022/07/29 08:41:48;;;;;;;5.13;2.35;;;18.20;79.50;;;;;;5088992;28;20024;-64
2022/07/29 08:44:17;;;;;;;4.38;2.25;;;18.40;79.40;;;;;;5092149;28;20020;-63
2022/07/29 08:46:42;;;;;;;4.45;2.45;;;18.60;78.60;;;;;;5092131;28;20073;-67
2022/07/29 08:49:08;;;;;;;3.70;1.95;;;18.80;77.60;;;;;;5089742;28;20028;-63
2022/07/29 08:51:35;;;;;;;3.47;1.95;;;18.90;77.20;;;;;;5086489;28;20036;-61
2022/07/29 08:54:01;;;;;;;8.52;3.17;;;19.00;76.70;;;;;;5091397;28;20032;-59
2022/07/29 08:56:28;;;;;;;3.95;2.45;;;19.20;75.90;;;;;;5071986;28;20024;-60
2022/07/29 08:58:54;;;;;;;6.28;2.30;;;19.20;75.60;;;;;;5090942;28;20529;-59
2022/07/29 09:01:27;;;;;;;5.43;2.60;;;19.20;76.00;;;;;;5090882;28;20353;-59
2022/07/29 09:03:56;;;;;;;4.97;2.60;;;19.30;75.60;;;;;;5077112;28;20029;-62
2022/07/29 09:06:25;;;;;;;5.22;2.90;;;19.30;74.80;;;;;;5071689;28;20461;-60
2022/07/29 09:08:51;;;;;;;5.43;2.80;;;19.30;75.10;;;;;;5089881;28;20032;-59
2022/07/29 09:11:16;;;;;;;4.72;2.25;;;19.30;75.40;;;;;;5091074;28;20091;-59
2022/07/29 09:13:42;;;;;;;4.35;2.50;;;19.30;75.80;;;;;;5081102;28;20031;-60
2022/07/29 09:16:08;;;;;;;4.47;2.63;;;19.30;75.60;;;;;;5090608;28;20051;-57
2022/07/29 09:18:42;;;;;;;5.13;2.13;;;19.30;75.30;;;;;;5090694;28;20062;-59
2022/07/29 09:24:06;;;;;;;4.80;2.50;;;19.40;75.60;;;;;;5091335;28;20089;-59
2022/07/29 09:26:38;;;;;;;3.67;2.20;;;19.40;75.00;;;;;;5089766;28;20028;-59
2022/07/29 09:29:12;;;;;;;4.97;2.70;;;19.50;75.10;;;;;;5091397;28;20034;-60
2022/07/29 09:31:40;;;;;;;7.13;3.35;;;19.40;74.70;;;;;;5091680;28;20020;-66
2022/07/29 09:34:07;;;;;;;4.05;2.28;;;19.40;74.70;;;;;;5086718;28;20058;-65
2022/07/29 09:36:43;;;;;;;5.88;3.40;;;19.40;74.90;;;;;;5082678;28;20091;-64
2022/07/29 09:39:09;;;;;;;4.32;2.58;;;19.40;74.60;;;;;;5070632;28;20103;-66
2022/07/29 09:41:45;;;;;;;3.53;2.20;;;19.30;74.70;;;;;;5086872;28;20532;-67
2022/07/29 09:44:11;;;;;;;5.72;2.80;;;19.30;75.10;;;;;;5072723;28;20023;-63
2022/07/29 09:46:37;;;;;;;4.75;2.63;;;19.20;74.80;;;;;;5057046;28;20039;-68
2022/07/29 09:49:10;;;;;;;5.60;3.05;;;19.30;74.50;;;;;;5072753;28;20028;-67
2022/07/29 09:51:36;;;;;;;7.18;2.58;;;19.30;74.70;;;;;;5091557;28;20024;-67
2022/07/29 09:54:22;;;;;;;3.65;2.38;;;19.40;75.00;;;;;;5090381;28;20540;-66
2022/07/29 09:56:48;;;;;;;4.00;2.75;;;19.50;74.50;;;;;;5088710;28;20073;-62
2022/07/29 09:59:14;;;;;;;5.80;2.80;;;19.50;73.80;;;;;;5072800;28;20077;-63
2022/07/29 10:01:40;;;;;;;5.60;2.88;;;19.70;73.90;;;;;;5090531;28;20510;-67
2022/07/29 10:04:06;;;;;;;3.50;2.83;;;19.70;73.50;;;;;;5063181;28;20484;-61
2022/07/29 10:06:31;;;;;;;7.88;3.05;;;19.80;73.20;;;;;;5083037;28;20094;-66
2022/07/29 10:09:17;;;;;;;5.15;2.83;;;19.80;73.70;;;;;;5089879;28;20715;-59
2022/07/29 10:12:06;;;;;;;6.57;3.10;;;19.80;73.30;;;;;;5086144;28;20427;-62
2022/07/29 10:14:33;;;;;;;5.22;2.83;;;19.80;74.20;;;;;;5088317;28;20116;-60
2022/07/29 10:17:00;;;;;;;3.85;2.78;;;19.70;75.50;;;;;;5088963;28;20174;-65
2022/07/29 10:19:31;;;;;;;6.93;3.40;;;19.60;75.20;;;;;;5089877;28;20024;-62
2022/07/29 10:22:01;;;;;;;5.13;2.80;;;19.60;75.20;;;;;;5089361;28;20031;-74
2022/07/29 10:24:29;;;;;;;5.97;3.10;;;19.60;76.40;;;;;;5089744;28;20034;-62
2022/07/29 10:26:56;;;;;;;4.47;3.30;;;19.60;76.40;;;;;;5088355;28;20423;-68
2022/07/29 10:29:22;;;;;;;7.63;3.20;;;19.70;75.50;;;;;;5087567;28;20046;-60
2022/07/29 10:32:15;;;;;;;6.18;3.35;;;19.90;76.00;;;;;;5088743;28;20028;-60
2022/07/29 10:35:18;;;;;;;4.55;2.90;;;20.10;74.90;;;;;;5071437;28;20055;-61
2022/07/29 10:38:21;;;;;;;4.45;2.78;;;20.20;72.90;;;;;;5087286;28;20456;-59
2022/07/29 10:41:26;;;;;;;5.25;2.95;;;20.30;72.10;;;;;;5088614;28;20040;-62
2022/07/29 10:44:14;;;;;;;4.65;3.00;;;20.50;73.60;;;;;;5088928;28;20024;-60
2022/07/29 10:46:41;;;;;;;5.13;2.85;;;20.70;71.80;;;;;;5068663;28;20028;-62
2022/07/29 10:49:15;;;;;;;7.97;3.13;;;20.70;71.30;;;;;;5089606;28;20020;-59
2022/07/29 10:51:50;;;;;;;6.53;3.20;;;20.70;71.40;;;;;;5088148;28;20031;-59
2022/07/29 10:54:17;;;;;;;4.68;3.00;;;20.60;70.70;;;;;;5088871;28;20475;-64
2022/07/29 10:56:42;;;;;;;3.90;2.53;;;20.50;71.20;;;;;;5088818;28;20024;-57
2022/07/29 10:59:20;;;;;;;7.53;3.28;;;20.40;71.20;;;;;;5086285;28;20047;-56
2022/07/29 11:01:47;;;;;;;4.28;3.20;;;20.40;71.30;;;;;;5089599;28;20020;-57
2022/07/29 11:04:13;;;;;;;4.15;2.92;;;20.40;72.40;;;;;;5086868;28;20020;-57
2022/07/29 11:07:07;;;;;;;6.35;2.70;;;20.50;72.00;;;;;;5087974;28;20105;-51
2022/07/29 11:09:33;;;;;;;7.13;2.58;;;20.60;71.30;;;;;;5088571;28;20161;-51
2022/07/29 11:11:59;;;;;;;4.88;2.70;;;20.70;71.10;;;;;;5087147;28;20532;-55
2022/07/29 11:14:58;;;;;;;5.15;2.60;;;20.70;70.00;;;;;;5087743;28;20034;-54
2022/07/29 11:17:25;;;;;;;4.97;2.80;;;20.60;68.90;;;;;;5090766;28;20051;-56
2022/07/29 11:19:51;;;;;;;4.55;2.80;;;20.60;69.50;;;;;;5093200;28;20539;-55
2022/07/29 11:22:34;;;;;;;4.30;2.50;;;20.60;70.30;;;;;;5087434;28;20035;-54
2022/07/29 11:25:13;;;;;;;4.18;2.83;;;20.70;68.40;;;;;;5079966;28;20032;-55
2022/07/29 11:27:39;;;;;;;4.97;2.30;;;20.70;67.60;;;;;;5091467;28;20013;-59
2022/07/29 11:30:05;;;;;;;5.50;1.85;;;20.70;66.90;;;;;;5073668;28;20036;-57
2022/07/29 11:32:40;;;;;;;4.57;2.17;;;20.70;67.10;;;;;;5092904;28;20028;-57
2022/07/29 11:35:23;;;;;;;5.20;2.17;;;20.80;67.90;;;;;;5093108;28;20032;-59
2022/07/29 11:38:36;;;;;;;3.88;2.03;;;20.90;68.30;;;;;;5092386;28;20051;-55
2022/07/29 11:41:17;;;;;;;3.58;2.10;;;21.00;67.40;;;;;;5055389;28;20063;-58
2022/07/29 11:43:57;;;;;;;6.22;1.92;;;21.10;66.10;;;;;;5070047;28;20032;-58
2022/07/29 11:46:49;;;;;;;4.15;1.70;;;21.20;65.90;;;;;;5090964;28;20030;-61
2022/07/29 11:49:26;;;;;;;4.68;1.70;;;21.20;64.80;;;;;;5079834;28;20032;-66
2022/07/29 11:51:56;;;;;;;3.10;1.77;;;21.30;63.70;;;;;;5090614;28;20080;-62
2022/07/29 11:54:29;;;;;;;4.57;1.83;;;21.40;63.50;;;;;;5074793;28;20478;-74
2022/07/29 11:56:55;;;;;;;4.47;1.85;;;21.40;63.50;;;;;;5092819;28;20270;-72
2022/07/29 11:59:21;;;;;;;3.78;1.77;;;21.50;63.90;;;;;;5072685;28;20385;-68
2022/07/29 12:01:57;;;;;;;5.32;1.90;;;21.60;63.80;;;;;;5054331;28;20070;-63
2022/07/29 12:04:23;;;;;;;3.67;1.90;;;21.70;64.80;;;;;;5073224;28;20500;-66
2022/07/29 12:06:50;;;;;;;4.38;1.60;;;21.80;64.10;;;;;;5071752;28;20801;-55
2022/07/29 12:09:17;;;;;;;3.13;1.90;;;22.00;63.40;;;;;;5073692;28;20380;-56
2022/07/29 12:11:43;;;;;;;2.55;1.73;;;22.10;62.60;;;;;;5092745;28;20024;-54
2022/07/29 12:14:09;;;;;;;4.93;1.90;;;22.20;61.60;;;;;;5091308;28;20036;-58
2022/07/29 12:16:37;;;;;;;3.60;1.90;;;22.20;61.30;;;;;;5091504;28;20024;-74
2022/07/29 12:19:04;;;;;;;5.78;2.13;;;22.30;61.60;;;;;;5092593;28;20024;-59
2022/07/29 12:21:53;;;;;;;7.25;2.08;;;22.50;61.20;;;;;;5086305;28;20062;-59
2022/07/29 12:24:19;;;;;;;2.17;1.80;;;22.60;60.60;;;;;;5072867;28;20419;-59
2022/07/29 12:26:58;;;;;;;4.25;1.80;;;22.60;60.20;;;;;;5069733;28;20016;-59
2022/07/29 12:29:26;;;;;;;4.85;2.35;;;22.70;59.70;;;;;;5089030;28;20097;-60
2022/07/29 12:31:53;;;;;;;3.05;1.67;;;22.80;60.10;;;;;;5080909;28;20078;-60
2022/07/29 12:34:22;;;;;;;2.92;1.80;;;22.80;60.70;;;;;;5079750;28;20059;-65
2022/07/29 12:36:48;;;;;;;2.10;1.40;;;23.00;60.40;;;;;;5071463;28;20054;-60
2022/07/29 12:39:16;;;;;;;3.33;1.70;;;23.20;60.10;;;;;;5090279;28;20056;-64
2022/07/29 12:41:42;;;;;;;5.25;1.70;;;23.40;58.80;;;;;;5090843;28;20046;-62
2022/07/29 12:44:09;;;;;;;5.25;1.80;;;23.50;58.30;;;;;;5089884;28;20103;-67
2022/07/29 12:46:34;;;;;;;3.78;1.55;;;23.70;58.30;;;;;;5092044;28;20031;-60
2022/07/29 12:49:00;;;;;;;3.42;1.45;;;24.00;57.80;;;;;;5090120;28;20032;-66
2022/07/29 12:51:36;;;;;;;5.07;1.83;;;24.20;57.00;;;;;;5090843;28;20389;-62
2022/07/29 12:54:15;;;;;;;2.17;1.30;;;24.30;55.80;;;;;;5089650;28;20057;-59
2022/07/29 12:56:43;;;;;;;3.13;1.50;;;24.50;55.40;;;;;;5091368;28;20093;-58
2022/07/29 12:59:22;;;;;;;3.25;1.75;;;24.40;55.10;;;;;;5088613;28;20028;-63
2022/07/29 13:01:51;;;;;;;2.33;1.20;;;24.30;55.10;;;;;;5086932;28;20085;-59
2022/07/29 13:04:27;;;;;;;3.35;1.58;;;24.30;55.60;;;;;;5091056;28;20644;-58